sensor_id;sensor_type;location;lat;lon;timestamp;pressure;altitude;pressure_sealevel;temperature;humidity
46942;BME280;32676;52.630;4.896;2023-07-13T00:01:43;99238.84;;;17.76;74.53
46942;BME280;32676;52.630;4.896;2023-07-13T00:04:11;99222.34;;;17.72;74.60
46942;BME280;32676;52.630;4.896;2023-07-13T00:06:37;99195.47;;;17.65;74.72
46942;BME280;32676;52.630;4.896;2023-07-13T00:09:11;99195.47;;;17.65;74.91
46942;BME280;32676;52.630;4.896;2023-07-13T00:11:38;99196.59;;;17.63;74.88
46942;BME280;32676;52.630;4.896;2023-07-13T00:14:04;99197.41;;;17.63;75.31
46942;BME280;32676;52.630;4.896;2023-07-13T00:16:33;99202.72;;;17.63;75.40
46942;BME280;32676;52.630;4.896;2023-07-13T00:18:59;99188.75;;;17.61;75.65
46942;BME280;32676;52.630;4.896;2023-07-13T00:21:26;99203.84;;;17.61;75.99
46942;BME280;32676;52.630;4.896;2023-07-13T00:23:52;99208.31;;;17.60;76.47
46942;BME280;32676;52.630;4.896;2023-07-13T00:26:20;99206.34;;;17.62;76.87
46942;BME280;32676;52.630;4.896;2023-07-13T00:28:46;99233.50;;;17.66;77.43
46942;BME280;32676;52.630;4.896;2023-07-13T00:31:13;99248.34;;;17.69;77.52
46942;BME280;32676;52.630;4.896;2023-07-13T00:33:40;99262.91;;;17.74;77.82
46942;BME280;32676;52.630;4.896;2023-07-13T00:36:07;99293.41;;;17.80;78.00
46942;BME280;32676;52.630;4.896;2023-07-13T00:38:33;99323.09;;;17.85;78.19
46942;BME280;32676;52.630;4.896;2023-07-13T00:41:00;99337.09;;;17.87;78.15
46942;BME280;32676;52.630;4.896;2023-07-13T00:43:27;99344.06;;;17.88;78.54
46942;BME280;32676;52.630;4.896;2023-07-13T00:46:09;99358.09;;;17.90;78.78
46942;BME280;32676;52.630;4.896;2023-07-13T00:48:36;99370.16;;;17.94;79.13
46942;BME280;32676;52.630;4.896;2023-07-13T00:51:04;99390.28;;;17.97;79.11
46942;BME280;32676;52.630;4.896;2023-07-13T00:53:31;99405.84;;;18.01;79.13
46942;BME280;32676;52.630;4.896;2023-07-13T00:55:58;99433.84;;;18.06;79.01
46942;BME280;32676;52.630;4.896;2023-07-13T00:58:25;99439.88;;;18.08;78.56
46942;BME280;32676;52.630;4.896;2023-07-13T01:00:53;99445.19;;;18.08;78.65
46942;BME280;32676;52.630;4.896;2023-07-13T01:03:20;99438.47;;;18.03;78.08
46942;BME280;32676;52.630;4.896;2023-07-13T01:05:46;99442.81;;;18.05;77.80
46942;BME280;32676;52.630;4.896;2023-07-13T01:08:14;99446.31;;;18.05;77.52
46942;BME280;32676;52.630;4.896;2023-07-13T01:10:40;99440.41;;;18.01;77.18
46942;BME280;32676;52.630;4.896;2023-07-13T01:13:08;99433.38;;;18.00;76.93
46942;BME280;32676;52.630;4.896;2023-07-13T01:15:35;99426.66;;;17.96;76.30
46942;BME280;32676;52.630;4.896;2023-07-13T01:18:03;99422.19;;;17.97;76.17
46942;BME280;32676;52.630;4.896;2023-07-13T01:20:31;99428.34;;;17.97;75.73
46942;BME280;32676;52.630;4.896;2023-07-13T01:23:03;99414.63;;;17.92;75.37
46942;BME280;32676;52.630;4.896;2023-07-13T01:25:29;99406.66;;;17.92;75.32
46942;BME280;32676;52.630;4.896;2023-07-13T01:27:56;99417.28;;;17.92;74.98
46942;BME280;32676;52.630;4.896;2023-07-13T01:30:22;99402.53;;;17.88;74.56
46942;BME280;32676;52.630;4.896;2023-07-13T01:32:48;99404.38;;;17.88;74.49
46942;BME280;32676;52.630;4.896;2023-07-13T01:35:14;99382.63;;;17.82;74.37
46942;BME280;32676;52.630;4.896;2023-07-13T01:37:41;99360.09;;;17.77;74.33
46942;BME280;32676;52.630;4.896;2023-07-13T01:40:11;99361.06;;;17.76;74.45
46942;BME280;32676;52.630;4.896;2023-07-13T01:42:38;99372.41;;;17.78;74.25
46942;BME280;32676;52.630;4.896;2023-07-13T01:45:04;99353.22;;;17.74;74.11
46942;BME280;32676;52.630;4.896;2023-07-13T01:47:31;99335.00;;;17.70;74.09
46942;BME280;32676;52.630;4.896;2023-07-13T01:49:57;99334.31;;;17.68;74.42
46942;BME280;32676;52.630;4.896;2023-07-13T01:52:26;99328.28;;;17.65;74.52
46942;BME280;32676;52.630;4.896;2023-07-13T01:54:52;99324.94;;;17.63;74.61
46942;BME280;32676;52.630;4.896;2023-07-13T01:57:20;99314.44;;;17.62;74.40
46942;BME280;32676;52.630;4.896;2023-07-13T01:59:46;99314.56;;;17.60;74.54
46942;BME280;32676;52.630;4.896;2023-07-13T02:02:12;99304.22;;;17.57;74.84
46942;BME280;32676;52.630;4.896;2023-07-13T02:04:40;99298.91;;;17.57;74.99
46942;BME280;32676;52.630;4.896;2023-07-13T02:07:07;99289.50;;;17.53;75.13
46942;BME280;32676;52.630;4.896;2023-07-13T02:09:33;99287.84;;;17.52;75.35
46942;BME280;32676;52.630;4.896;2023-07-13T02:12:00;99292.16;;;17.53;75.67
46942;BME280;32676;52.630;4.896;2023-07-13T02:14:27;99288.78;;;17.51;75.44
46942;BME280;32676;52.630;4.896;2023-07-13T02:16:54;99274.09;;;17.47;75.81
46942;BME280;32676;52.630;4.896;2023-07-13T02:19:20;99270.75;;;17.45;75.97
46942;BME280;32676;52.630;4.896;2023-07-13T02:21:47;99277.72;;;17.46;75.77
46942;BME280;32676;52.630;4.896;2023-07-13T02:24:13;99266.38;;;17.44;75.74
46942;BME280;32676;52.630;4.896;2023-07-13T02:26:42;99285.69;;;17.46;75.95
46942;BME280;32676;52.630;4.896;2023-07-13T02:29:08;99281.38;;;17.45;75.78
46942;BME280;32676;52.630;4.896;2023-07-13T02:31:36;99282.31;;;17.44;75.97
46942;BME280;32676;52.630;4.896;2023-07-13T02:34:03;99271.00;;;17.42;75.93
46942;BME280;32676;52.630;4.896;2023-07-13T02:36:29;99273.66;;;17.42;76.23
46942;BME280;32676;52.630;4.896;2023-07-13T02:38:55;99265.09;;;17.38;75.97
46942;BME280;32676;52.630;4.896;2023-07-13T02:41:22;99263.28;;;17.39;76.19
46942;BME280;32676;52.630;4.896;2023-07-13T02:43:49;99269.47;;;17.39;76.40
46942;BME280;32676;52.630;4.896;2023-07-13T02:46:15;99270.53;;;17.37;76.33
46942;BME280;32676;52.630;4.896;2023-07-13T02:48:42;99279.22;;;17.39;76.42
46942;BME280;32676;52.630;4.896;2023-07-13T02:51:10;99300.91;;;17.44;76.54
46942;BME280;32676;52.630;4.896;2023-07-13T02:53:36;99303.56;;;17.44;76.46
46942;BME280;32676;52.630;4.896;2023-07-13T02:56:02;99284.53;;;17.39;76.23
46942;BME280;32676;52.630;4.896;2023-07-13T02:58:29;99287.19;;;17.39;76.41
46942;BME280;32676;52.630;4.896;2023-07-13T03:00:55;99282.03;;;17.37;76.49
46942;BME280;32676;52.630;4.896;2023-07-13T03:03:22;99278.63;;;17.35;76.65
46942;BME280;32676;52.630;4.896;2023-07-13T03:05:57;99283.13;;;17.35;76.55
46942;BME280;32676;52.630;4.896;2023-07-13T03:08:25;99283.13;;;17.35;76.75
46942;BME280;32676;52.630;4.896;2023-07-13T03:10:58;99277.09;;;17.33;76.67
46942;BME280;32676;52.630;4.896;2023-07-13T03:13:24;99281.44;;;17.34;76.72
46942;BME280;32676;52.630;4.896;2023-07-13T03:15:52;99291.22;;;17.33;76.72
46942;BME280;32676;52.630;4.896;2023-07-13T03:18:18;99300.75;;;17.36;76.51
46942;BME280;32676;52.630;4.896;2023-07-13T03:20:44;99300.75;;;17.36;76.71
46942;BME280;32676;52.630;4.896;2023-07-13T03:23:12;99289.41;;;17.34;76.65
46942;BME280;32676;52.630;4.896;2023-07-13T03:25:38;99266.84;;;17.28;76.81
46942;BME280;32676;52.630;4.896;2023-07-13T03:28:05;99278.34;;;17.29;76.90
46942;BME280;32676;52.630;4.896;2023-07-13T03:30:32;99281.00;;;17.29;77.02
46942;BME280;32676;52.630;4.896;2023-07-13T03:32:58;99289.78;;;17.29;77.04
46942;BME280;32676;52.630;4.896;2023-07-13T03:35:24;99286.31;;;17.29;77.29
46942;BME280;32676;52.630;4.896;2023-07-13T03:37:51;99290.63;;;17.30;77.31
46942;BME280;32676;52.630;4.896;2023-07-13T03:40:21;99301.25;;;17.30;77.49
46942;BME280;32676;52.630;4.896;2023-07-13T03:42:47;99304.59;;;17.32;77.45
46942;BME280;32676;52.630;4.896;2023-07-13T03:45:21;99320.41;;;17.33;77.77
46942;BME280;32676;52.630;4.896;2023-07-13T03:47:47;99316.94;;;17.33;77.56
46942;BME280;32676;52.630;4.896;2023-07-13T03:50:14;99319.47;;;17.34;77.85
46942;BME280;32676;52.630;4.896;2023-07-13T03:52:40;99328.25;;;17.35;77.82
46942;BME280;32676;52.630;4.896;2023-07-13T03:55:07;99331.91;;;17.34;77.54
46942;BME280;32676;52.630;4.896;2023-07-13T03:57:35;99347.44;;;17.38;77.55
46942;BME280;32676;52.630;4.896;2023-07-13T04:00:02;99362.28;;;17.41;77.56
46942;BME280;32676;52.630;4.896;2023-07-13T04:02:31;99369.13;;;17.43;77.49
46942;BME280;32676;52.630;4.896;2023-07-13T04:04:57;99373.72;;;17.41;77.19
46942;BME280;32676;52.630;4.896;2023-07-13T04:07:23;99381.56;;;17.43;77.53
46942;BME280;32676;52.630;4.896;2023-07-13T04:09:49;99404.22;;;17.47;77.36
46942;BME280;32676;52.630;4.896;2023-07-13T04:12:16;99404.22;;;17.47;77.39
46942;BME280;32676;52.630;4.896;2023-07-13T04:14:43;99416.41;;;17.50;77.53
46942;BME280;32676;52.630;4.896;2023-07-13T04:17:10;99438.94;;;17.55;77.41
46942;BME280;32676;52.630;4.896;2023-07-13T04:19:36;99452.09;;;17.57;77.72
46942;BME280;32676;52.630;4.896;2023-07-13T04:22:02;99474.81;;;17.61;77.64
46942;BME280;32676;52.630;4.896;2023-07-13T04:24:29;99475.63;;;17.61;77.56
46942;BME280;32676;52.630;4.896;2023-07-13T04:26:55;99521.00;;;17.70;77.47
46942;BME280;32676;52.630;4.896;2023-07-13T04:29:24;99537.41;;;17.75;77.42
46942;BME280;32676;52.630;4.896;2023-07-13T04:31:52;99559.38;;;17.77;77.38
46942;BME280;32676;52.630;4.896;2023-07-13T04:34:19;99589.78;;;17.84;77.23
46942;BME280;32676;52.630;4.896;2023-07-13T04:36:45;99609.00;;;17.88;77.02
46942;BME280;32676;52.630;4.896;2023-07-13T04:39:11;99658.50;;;18.00;76.89
46942;BME280;32676;52.630;4.896;2023-07-13T04:41:38;99723.69;;;18.15;76.87
46942;BME280;32676;52.630;4.896;2023-07-13T04:44:04;99796.06;;;18.30;76.36
46942;BME280;32676;52.630;4.896;2023-07-13T04:46:30;99877.03;;;18.49;76.10
46942;BME280;32676;52.630;4.896;2023-07-13T04:48:58;99945.97;;;18.63;75.88
46942;BME280;32676;52.630;4.896;2023-07-13T04:51:25;100008.59;;;18.78;75.42
46942;BME280;32676;52.630;4.896;2023-07-13T04:53:52;100043.47;;;18.87;75.03
46942;BME280;32676;52.630;4.896;2023-07-13T04:56:18;100115.13;;;19.01;74.63
46942;BME280;32676;52.630;4.896;2023-07-13T04:58:46;100158.66;;;19.11;74.23
46942;BME280;32676;52.630;4.896;2023-07-13T05:01:12;100182.28;;;19.16;74.02
46942;BME280;32676;52.630;4.896;2023-07-13T05:03:40;100181.41;;;19.15;73.89
46942;BME280;32676;52.630;4.896;2023-07-13T05:06:08;100168.38;;;19.12;73.79
46942;BME280;32676;52.630;4.896;2023-07-13T05:08:35;100174.66;;;19.11;73.88
46942;BME280;32676;52.630;4.896;2023-07-13T05:11:03;100158.94;;;19.08;74.06
46942;BME280;32676;52.630;4.896;2023-07-13T05:13:32;100152.72;;;19.08;74.09
46942;BME280;32676;52.630;4.896;2023-07-13T05:15:59;100149.22;;;19.07;74.07
46942;BME280;32676;52.630;4.896;2023-07-13T05:18:26;100156.38;;;19.07;74.07
46942;BME280;32676;52.630;4.896;2023-07-13T05:20:57;100150.19;;;19.06;74.07
46942;BME280;32676;52.630;4.896;2023-07-13T05:23:27;100131.94;;;19.02;74.21
46942;BME280;32676;52.630;4.896;2023-07-13T05:25:54;100126.84;;;18.98;74.45
46942;BME280;32676;52.630;4.896;2023-07-13T05:28:20;100120.66;;;18.98;74.31
46942;BME280;32676;52.630;4.896;2023-07-13T05:30:46;100115.56;;;18.95;74.20
46942;BME280;32676;52.630;4.896;2023-07-13T05:33:13;100119.22;;;18.94;74.51
46942;BME280;32676;52.630;4.896;2023-07-13T05:35:39;100113.91;;;18.94;74.53
46942;BME280;32676;52.630;4.896;2023-07-13T05:38:06;100105.19;;;18.92;74.75
46942;BME280;32676;52.630;4.896;2023-07-13T05:40:33;100108.81;;;18.91;74.72
46942;BME280;32676;52.630;4.896;2023-07-13T05:43:00;100126.22;;;18.95;74.54
46942;BME280;32676;52.630;4.896;2023-07-13T05:45:26;100128.88;;;18.95;74.76
46942;BME280;32676;52.630;4.896;2023-07-13T05:47:52;100131.56;;;18.95;74.69
46942;BME280;32676;52.630;4.896;2023-07-13T05:50:20;100134.94;;;18.97;74.51
46942;BME280;32676;52.630;4.896;2023-07-13T05:52:46;100155.78;;;19.03;74.41
46942;BME280;32676;52.630;4.896;2023-07-13T05:55:14;100171.50;;;19.06;74.34
46942;BME280;32676;52.630;4.896;2023-07-13T05:57:41;100172.59;;;19.04;74.12
46942;BME280;32676;52.630;4.896;2023-07-13T06:00:09;100183.84;;;19.07;73.82
46942;BME280;32676;52.630;4.896;2023-07-13T06:02:35;100180.47;;;19.05;73.57
46942;BME280;32676;52.630;4.896;2023-07-13T06:05:01;100187.47;;;19.06;73.24
46942;BME280;32676;52.630;4.896;2023-07-13T06:07:28;100187.47;;;19.06;73.17
46942;BME280;32676;52.630;4.896;2023-07-13T06:09:54;100194.50;;;19.07;73.08
46942;BME280;32676;52.630;4.896;2023-07-13T06:12:20;100205.88;;;19.09;73.57
46942;BME280;32676;52.630;4.896;2023-07-13T06:14:48;100224.28;;;19.12;73.52
46942;BME280;32676;52.630;4.896;2023-07-13T06:17:15;100253.81;;;19.21;73.58
46942;BME280;32676;52.630;4.896;2023-07-13T06:19:41;100288.72;;;19.29;73.79
46942;BME280;32676;52.630;4.896;2023-07-13T06:22:07;100321.19;;;19.34;73.65
46942;BME280;32676;52.630;4.896;2023-07-13T06:24:34;100346.41;;;19.41;73.92
46942;BME280;32676;52.630;4.896;2023-07-13T06:27:00;100395.34;;;19.51;73.11
46942;BME280;32676;52.630;4.896;2023-07-13T06:29:27;100440.66;;;19.63;72.74
46942;BME280;32676;52.630;4.896;2023-07-13T06:31:54;100469.03;;;19.64;71.38
46942;BME280;32676;52.630;4.896;2023-07-13T06:34:21;100494.06;;;19.74;70.88
46942;BME280;32676;52.630;4.896;2023-07-13T06:36:47;100502.06;;;19.74;70.38
46942;BME280;32676;52.630;4.896;2023-07-13T06:39:13;100493.09;;;19.75;69.87
46942;BME280;32676;52.630;4.896;2023-07-13T06:41:40;100511.63;;;19.77;69.88
46942;BME280;32676;52.630;4.896;2023-07-13T06:44:06;100522.91;;;19.80;69.52
46942;BME280;32676;52.630;4.896;2023-07-13T06:46:32;100529.09;;;19.81;69.53
46942;BME280;32676;52.630;4.896;2023-07-13T06:49:00;100542.31;;;19.82;69.49
46942;BME280;32676;52.630;4.896;2023-07-13T06:51:26;100538.69;;;19.83;69.70
46942;BME280;32676;52.630;4.896;2023-07-13T06:53:52;100526.53;;;19.79;69.90
46942;BME280;32676;52.630;4.896;2023-07-13T06:56:19;100493.31;;;19.72;70.46
46942;BME280;32676;52.630;4.896;2023-07-13T06:58:45;100447.09;;;19.60;70.84
46942;BME280;32676;52.630;4.896;2023-07-13T07:01:12;100390.25;;;19.48;71.50
46942;BME280;32676;52.630;4.896;2023-07-13T07:03:38;100330.16;;;19.33;72.47
46942;BME280;32676;52.630;4.896;2023-07-13T07:06:09;100274.31;;;19.20;73.08
46942;BME280;32676;52.630;4.896;2023-07-13T07:08:37;100222.84;;;19.08;73.46
46942;BME280;32676;52.630;4.896;2023-07-13T07:11:04;100186.25;;;18.99;73.67
46942;BME280;32676;52.630;4.896;2023-07-13T07:13:30;100147.03;;;18.90;73.59
46942;BME280;32676;52.630;4.896;2023-07-13T07:15:56;100146.31;;;18.88;73.29
46942;BME280;32676;52.630;4.896;2023-07-13T07:18:25;100156.72;;;18.91;73.55
46942;BME280;32676;52.630;4.896;2023-07-13T07:20:51;100177.81;;;18.94;73.34
46942;BME280;32676;52.630;4.896;2023-07-13T07:23:19;100191.59;;;18.99;73.24
46942;BME280;32676;52.630;4.896;2023-07-13T07:25:45;100242.44;;;19.07;72.67
46942;BME280;32676;52.630;4.896;2023-07-13T07:28:12;100299.84;;;19.23;72.47
46942;BME280;32676;52.630;4.896;2023-07-13T07:30:41;100369.63;;;19.39;72.10
46942;BME280;32676;52.630;4.896;2023-07-13T07:33:07;100437.03;;;19.52;71.47
46942;BME280;32676;52.630;4.896;2023-07-13T07:35:34;100497.16;;;19.68;71.17
46942;BME280;32676;52.630;4.896;2023-07-13T07:38:00;100588.16;;;19.87;70.89
46942;BME280;32676;52.630;4.896;2023-07-13T07:40:28;100686.91;;;20.10;70.24
46942;BME280;32676;52.630;4.896;2023-07-13T07:42:54;100791.09;;;20.32;69.46
46942;BME280;32676;52.630;4.896;2023-07-13T07:45:20;100884.88;;;20.52;68.45
46942;BME280;32676;52.630;4.896;2023-07-13T07:47:47;100966.34;;;20.70;67.58
46942;BME280;32676;52.630;4.896;2023-07-13T07:50:13;101031.97;;;20.86;66.56
46942;BME280;32676;52.630;4.896;2023-07-13T07:52:40;101129.28;;;21.07;66.32
46942;BME280;32676;52.630;4.896;2023-07-13T07:55:06;101199.38;;;21.24;65.68
46942;BME280;32676;52.630;4.896;2023-07-13T07:57:34;101303.75;;;21.48;65.16
46942;BME280;32676;52.630;4.896;2023-07-13T08:00:01;101373.91;;;21.64;63.99
46942;BME280;32676;52.630;4.896;2023-07-13T08:02:27;101328.25;;;21.55;63.09
46942;BME280;32676;52.630;4.896;2023-07-13T08:04:53;101352.84;;;21.60;61.55
46942;BME280;32676;52.630;4.896;2023-07-13T08:07:20;101339.69;;;21.57;60.26
46942;BME280;32676;52.630;4.896;2023-07-13T08:09:46;101309.72;;;21.52;60.12
46942;BME280;32676;52.630;4.896;2023-07-13T08:12:12;101333.50;;;21.56;60.63
46942;BME280;32676;52.630;4.896;2023-07-13T08:14:40;101408.91;;;21.74;60.70
46942;BME280;32676;52.630;4.896;2023-07-13T08:17:06;101434.28;;;21.81;61.11
46942;BME280;32676;52.630;4.896;2023-07-13T08:19:32;101430.84;;;21.79;60.77
46942;BME280;32676;52.630;4.896;2023-07-13T08:21:59;101365.78;;;21.66;60.48
46942;BME280;32676;52.630;4.896;2023-07-13T08:24:25;101390.38;;;21.71;61.22
46942;BME280;32676;52.630;4.896;2023-07-13T08:26:51;101424.50;;;21.80;61.14
46942;BME280;32676;52.630;4.896;2023-07-13T08:29:18;101445.63;;;21.85;60.92
46942;BME280;32676;52.630;4.896;2023-07-13T08:31:46;101540.31;;;22.08;60.40
46942;BME280;32676;52.630;4.896;2023-07-13T08:34:12;101562.50;;;22.10;59.75
46942;BME280;32676;52.630;4.896;2023-07-13T08:36:39;101567.63;;;22.13;58.97
46942;BME280;32676;52.630;4.896;2023-07-13T08:39:06;101576.41;;;22.15;57.51
46942;BME280;32676;52.630;4.896;2023-07-13T08:41:32;101513.06;;;22.03;55.95
46942;BME280;32676;52.630;4.896;2023-07-13T08:43:59;101496.22;;;22.01;56.44
46942;BME280;32676;52.630;4.896;2023-07-13T08:46:28;101539.38;;;22.09;56.71
46942;BME280;32676;52.630;4.896;2023-07-13T08:49:02;101599.88;;;22.24;56.73
46942;BME280;32676;52.630;4.896;2023-07-13T08:51:32;101679.00;;;22.43;56.43
46942;BME280;32676;52.630;4.896;2023-07-13T08:54:00;101757.34;;;22.59;56.76
46942;BME280;32676;52.630;4.896;2023-07-13T08:56:28;101776.59;;;22.65;56.66
46942;BME280;32676;52.630;4.896;2023-07-13T08:58:55;101766.78;;;22.65;57.57
46942;BME280;32676;52.630;4.896;2023-07-13T09:01:23;101790.56;;;22.70;57.83
46942;BME280;32676;52.630;4.896;2023-07-13T09:03:52;101836.22;;;22.81;57.04
46942;BME280;32676;52.630;4.896;2023-07-13T09:06:27;101836.22;;;22.81;55.51
46942;BME280;32676;52.630;4.896;2023-07-13T09:08:55;101793.97;;;22.72;54.58
46942;BME280;32676;52.630;4.896;2023-07-13T09:11:29;101806.22;;;22.76;55.78
46942;BME280;32676;52.630;4.896;2023-07-13T09:13:59;101840.53;;;22.84;56.42
46942;BME280;32676;52.630;4.896;2023-07-13T09:16:29;101920.53;;;23.03;57.27
46942;BME280;32676;52.630;4.896;2023-07-13T09:18:56;101957.50;;;23.12;56.71
46942;BME280;32676;52.630;4.896;2023-07-13T09:21:27;101874.66;;;22.94;55.23
46942;BME280;32676;52.630;4.896;2023-07-13T09:23:56;101813.94;;;22.80;55.45
46942;BME280;32676;52.630;4.896;2023-07-13T09:26:26;101832.41;;;22.85;56.07
46942;BME280;32676;52.630;4.896;2023-07-13T09:28:55;101829.72;;;22.85;55.61
46942;BME280;32676;52.630;4.896;2023-07-13T09:31:23;101842.78;;;22.90;55.75
46942;BME280;32676;52.630;4.896;2023-07-13T09:33:52;101879.78;;;22.97;56.98
46942;BME280;32676;52.630;4.896;2023-07-13T09:36:19;101863.06;;;22.94;56.29
46942;BME280;32676;52.630;4.896;2023-07-13T09:38:47;101877.00;;;22.99;56.01
46942;BME280;32676;52.630;4.896;2023-07-13T09:41:18;101875.31;;;22.98;55.60
46942;BME280;32676;52.630;4.896;2023-07-13T09:44:02;101858.56;;;22.94;55.87
46942;BME280;32676;52.630;4.896;2023-07-13T09:46:34;101877.88;;;22.99;55.65
46942;BME280;32676;52.630;4.896;2023-07-13T09:49:00;101906.03;;;23.07;54.94
46942;BME280;32676;52.630;4.896;2023-07-13T09:51:26;101841.59;;;22.94;54.96
46942;BME280;32676;52.630;4.896;2023-07-13T09:53:54;101817.81;;;22.89;55.68
46942;BME280;32676;52.630;4.896;2023-07-13T09:56:23;101757.13;;;22.75;55.29
46942;BME280;32676;52.630;4.896;2023-07-13T09:58:49;101782.53;;;22.83;55.61
46942;BME280;32676;52.630;4.896;2023-07-13T10:01:17;101771.91;;;22.81;55.59
46942;BME280;32676;52.630;4.896;2023-07-13T10:03:57;101787.78;;;22.84;55.21
46942;BME280;32676;52.630;4.896;2023-07-13T10:06:23;101822.09;;;22.92;56.31
46942;BME280;32676;52.630;4.896;2023-07-13T10:08:51;101826.31;;;22.96;56.19
46942;BME280;32676;52.630;4.896;2023-07-13T10:11:20;101828.09;;;22.95;54.81
46942;BME280;32676;52.630;4.896;2023-07-13T10:13:48;101877.47;;;23.06;54.51
46942;BME280;32676;52.630;4.896;2023-07-13T10:16:17;101893.28;;;23.10;54.11
46942;BME280;32676;52.630;4.896;2023-07-13T10:18:45;101922.34;;;23.16;53.78
46942;BME280;32676;52.630;4.896;2023-07-13T10:21:13;101928.34;;;23.20;53.04
46942;BME280;32676;52.630;4.896;2023-07-13T10:23:40;101945.94;;;23.24;53.04
46942;BME280;32676;52.630;4.896;2023-07-13T10:26:09;101937.16;;;23.22;53.11
46942;BME280;32676;52.630;4.896;2023-07-13T10:28:40;101886.06;;;23.11;53.14
46942;BME280;32676;52.630;4.896;2023-07-13T10:31:11;101866.56;;;23.09;53.43
46942;BME280;32676;52.630;4.896;2023-07-13T10:33:38;101885.00;;;23.13;52.60
46942;BME280;32676;52.630;4.896;2023-07-13T10:36:07;101878.78;;;23.13;52.60
46942;BME280;32676;52.630;4.896;2023-07-13T10:38:38;101904.31;;;23.18;53.88
46942;BME280;32676;52.630;4.896;2023-07-13T10:41:05;101945.75;;;23.27;53.31
46942;BME280;32676;52.630;4.896;2023-07-13T10:43:33;101898.09;;;23.18;53.13
46942;BME280;32676;52.630;4.896;2023-07-13T10:46:03;101898.09;;;23.18;52.91
46942;BME280;32676;52.630;4.896;2023-07-13T10:48:29;101936.72;;;23.28;52.64
46942;BME280;32676;52.630;4.896;2023-07-13T10:50:57;101952.59;;;23.31;52.83
46942;BME280;32676;52.630;4.896;2023-07-13T10:53:28;101973.63;;;23.37;53.23
46942;BME280;32676;52.630;4.896;2023-07-13T10:55:55;101992.97;;;23.43;52.54
46942;BME280;32676;52.630;4.896;2023-07-13T10:58:23;102006.19;;;23.46;52.45
46942;BME280;32676;52.630;4.896;2023-07-13T11:01:03;102003.50;;;23.46;51.85
46942;BME280;32676;52.630;4.896;2023-07-13T11:03:31;102020.13;;;23.51;52.16
46942;BME280;32676;52.630;4.896;2023-07-13T11:06:05;102038.72;;;23.54;52.40
46942;BME280;32676;52.630;4.896;2023-07-13T11:08:35;102045.59;;;23.58;52.38
46942;BME280;32676;52.630;4.896;2023-07-13T11:11:04;102087.06;;;23.67;53.52
46942;BME280;32676;52.630;4.896;2023-07-13T11:13:58;102131.91;;;23.77;53.00
46942;BME280;32676;52.630;4.896;2023-07-13T11:16:35;102126.56;;;23.77;51.81
46942;BME280;32676;52.630;4.896;2023-07-13T11:19:25;102121.19;;;23.77;51.87
46942;BME280;32676;52.630;4.896;2023-07-13T11:22:02;102118.63;;;23.76;51.64
46942;BME280;32676;52.630;4.896;2023-07-13T11:24:28;102087.72;;;23.70;51.36
46942;BME280;32676;52.630;4.896;2023-07-13T11:26:55;102073.50;;;23.68;50.78
46942;BME280;32676;52.630;4.896;2023-07-13T11:29:27;102069.88;;;23.69;50.08
46942;BME280;32676;52.630;4.896;2023-07-13T11:31:58;102089.41;;;23.71;50.49
46942;BME280;32676;52.630;4.896;2023-07-13T11:34:25;102061.91;;;23.68;51.86
46942;BME280;32676;52.630;4.896;2023-07-13T11:36:53;102045.06;;;23.66;52.55
46942;BME280;32676;52.630;4.896;2023-07-13T11:39:21;102070.72;;;23.70;53.04
46942;BME280;32676;52.630;4.896;2023-07-13T11:41:51;102045.81;;;23.68;51.56
46942;BME280;32676;52.630;4.896;2023-07-13T11:44:19;102022.19;;;23.60;50.89
46942;BME280;32676;52.630;4.896;2023-07-13T11:46:48;102013.16;;;23.61;52.22
46942;BME280;32676;52.630;4.896;2023-07-13T11:49:16;102011.47;;;23.60;52.51
46942;BME280;32676;52.630;4.896;2023-07-13T11:51:43;102017.56;;;23.62;52.44
46942;BME280;32676;52.630;4.896;2023-07-13T11:54:15;102017.47;;;23.64;51.27
46942;BME280;32676;52.630;4.896;2023-07-13T11:56:45;101985.06;;;23.54;50.32
46942;BME280;32676;52.630;4.896;2023-07-13T11:59:12;101990.19;;;23.57;51.27
46942;BME280;32676;52.630;4.896;2023-07-13T12:01:42;101948.75;;;23.48;50.89
46942;BME280;32676;52.630;4.896;2023-07-13T12:04:11;101935.47;;;23.47;51.82
46942;BME280;32676;52.630;4.896;2023-07-13T12:06:46;101926.63;;;23.45;51.58
46942;BME280;32676;52.630;4.896;2023-07-13T12:09:19;101945.22;;;23.48;51.55
46942;BME280;32676;52.630;4.896;2023-07-13T12:11:50;101917.84;;;23.43;51.97
46942;BME280;32676;52.630;4.896;2023-07-13T12:14:17;101947.91;;;23.48;53.06
46942;BME280;32676;52.630;4.896;2023-07-13T12:16:45;101974.31;;;23.54;52.69
46942;BME280;32676;52.630;4.896;2023-07-13T12:19:16;101960.13;;;23.52;51.78
46942;BME280;32676;52.630;4.896;2023-07-13T12:21:43;101930.09;;;23.47;51.27
46942;BME280;32676;52.630;4.896;2023-07-13T12:24:13;101904.53;;;23.41;51.09
46942;BME280;32676;52.630;4.896;2023-07-13T12:26:40;101887.78;;;23.37;51.67
46942;BME280;32676;52.630;4.896;2023-07-13T12:29:07;101834.78;;;23.28;51.94
46942;BME280;32676;52.630;4.896;2023-07-13T12:31:34;101818.28;;;23.22;52.82
46942;BME280;32676;52.630;4.896;2023-07-13T12:34:01;101774.09;;;23.14;53.12
46942;BME280;32676;52.630;4.896;2023-07-13T12:36:34;101850.69;;;23.31;53.82
46942;BME280;32676;52.630;4.896;2023-07-13T12:39:03;101896.38;;;23.43;54.41
46942;BME280;32676;52.630;4.896;2023-07-13T12:41:30;101933.53;;;23.49;53.11
46942;BME280;32676;52.630;4.896;2023-07-13T12:43:57;101929.03;;;23.49;51.87
46942;BME280;32676;52.630;4.896;2023-07-13T12:46:25;101944.03;;;23.52;52.60
46942;BME280;32676;52.630;4.896;2023-07-13T12:48:54;101953.47;;;23.57;52.95
46942;BME280;32676;52.630;4.896;2023-07-13T12:51:21;101971.94;;;23.62;52.87
46942;BME280;32676;52.630;4.896;2023-07-13T12:53:50;101961.41;;;23.59;52.88
46942;BME280;32676;52.630;4.896;2023-07-13T12:56:20;101966.69;;;23.61;53.39